createdAt,value
2022-10-09T00:02:04.695Z,21.00
2022-10-09T00:04:50.356Z,21.00
2022-10-09T00:07:36.036Z,20.90
2022-10-09T00:10:22.267Z,20.80
2022-10-09T00:13:07.893Z,22.20
2022-10-09T00:15:53.423Z,20.70
2022-10-09T00:18:39.768Z,20.70
2022-10-09T00:21:34.086Z,20.60
2022-10-09T00:24:19.403Z,20.70
2022-10-09T00:27:04.906Z,20.80
2022-10-09T00:29:51.215Z,20.90
2022-10-09T00:32:37.048Z,20.90
2022-10-09T00:35:23.645Z,20.90
2022-10-09T00:38:10.092Z,21.00
2022-10-09T00:40:55.955Z,20.90
2022-10-09T00:43:43.050Z,20.40
2022-10-09T00:46:35.098Z,20.00
2022-10-09T00:49:29.783Z,20.10
2022-10-09T00:52:16.382Z,20.70
2022-10-09T00:55:03.866Z,20.90
2022-10-09T00:57:51.010Z,21.00
2022-10-09T01:00:36.804Z,20.90
2022-10-09T01:03:22.478Z,21.00
2022-10-09T01:06:16.642Z,20.80
2022-10-09T01:09:05.171Z,20.90
2022-10-09T01:12:00.704Z,20.90
2022-10-09T01:15:15.858Z,21.00
2022-10-09T01:18:01.113Z,21.00
2022-10-09T01:20:54.063Z,20.90
2022-10-09T01:24:05.278Z,20.40
2022-10-09T01:27:00.152Z,20.60
2022-10-09T01:29:55.252Z,20.90
2022-10-09T01:32:51.094Z,20.90
2022-10-09T01:35:38.026Z,21.00
2022-10-09T01:38:24.950Z,20.90
2022-10-09T01:41:10.690Z,21.00
2022-10-09T01:43:56.321Z,20.90
2022-10-09T01:46:42.205Z,21.00
2022-10-09T01:49:42.037Z,20.90
2022-10-09T01:52:44.306Z,21.00
2022-10-09T01:55:54.320Z,20.90
2022-10-09T01:59:02.716Z,20.90
2022-10-09T02:01:49.839Z,20.90
2022-10-09T02:04:39.069Z,21.00
2022-10-09T02:07:26.030Z,20.90
2022-10-09T02:10:13.465Z,20.90
2022-10-09T02:13:01.385Z,20.80
2022-10-09T02:15:55.699Z,20.90
2022-10-09T02:18:45.599Z,20.80
2022-10-09T02:21:54.528Z,20.60
2022-10-09T02:24:41.658Z,19.80
2022-10-09T02:27:27.800Z,19.30
2022-10-09T02:30:15.227Z,19.50
2022-10-09T02:33:00.839Z,19.90
2022-10-09T02:35:47.486Z,20.10
2022-10-09T02:38:33.031Z,20.00
2022-10-09T02:41:18.681Z,19.90
2022-10-09T02:44:05.942Z,20.10
2022-10-09T02:46:51.760Z,20.00
2022-10-09T02:49:37.707Z,19.90
2022-10-09T02:52:23.201Z,20.00
2022-10-09T02:55:09.153Z,19.50
2022-10-09T02:57:54.335Z,18.80
2022-10-09T03:00:39.674Z,18.30
2022-10-09T03:03:25.383Z,18.00
2022-10-09T03:06:18.048Z,18.00
2022-10-09T03:09:04.175Z,18.00
2022-10-09T03:11:49.674Z,18.00
2022-10-09T03:14:35.337Z,18.00
2022-10-09T03:17:20.752Z,17.90
2022-10-09T03:20:07.836Z,18.00
2022-10-09T03:22:53.433Z,18.10
2022-10-09T03:25:38.917Z,17.90
2022-10-09T03:28:25.018Z,18.00
2022-10-09T03:31:18.953Z,18.00
2022-10-09T03:34:16.544Z,17.90
2022-10-09T03:37:01.913Z,17.90
2022-10-09T03:39:47.566Z,17.90
2022-10-09T03:42:33.393Z,18.00
2022-10-09T03:45:18.780Z,18.10
2022-10-09T03:48:04.464Z,18.20
2022-10-09T03:50:50.386Z,18.30
2022-10-09T03:53:35.785Z,18.10
2022-10-09T03:56:21.593Z,18.20
2022-10-09T03:59:09.532Z,18.30
2022-10-09T04:01:55.070Z,18.10
2022-10-09T04:04:40.654Z,18.10
2022-10-09T04:07:26.123Z,18.10
2022-10-09T04:10:12.122Z,18.00
2022-10-09T04:12:57.700Z,17.90
2022-10-09T04:15:50.946Z,17.80
2022-10-09T04:18:36.313Z,17.80
2022-10-09T04:21:22.088Z,17.60
2022-10-09T04:24:08.657Z,17.50
2022-10-09T04:26:54.299Z,17.40
2022-10-09T04:29:39.547Z,15.90
2022-10-09T04:32:25.143Z,17.50
2022-10-09T04:35:10.521Z,17.70
2022-10-09T04:37:56.199Z,17.70
2022-10-09T04:40:42.241Z,17.80
2022-10-09T04:43:28.681Z,17.80
2022-10-09T04:46:15.187Z,17.70
2022-10-09T04:49:00.546Z,17.70
2022-10-09T04:51:47.092Z,17.70
2022-10-09T04:54:32.674Z,18.10
2022-10-09T04:57:18.255Z,18.20
2022-10-09T05:00:05.075Z,18.40
2022-10-09T05:03:05.275Z,17.80
2022-10-09T05:05:51.057Z,17.60
2022-10-09T05:08:37.585Z,17.70
2022-10-09T05:11:24.852Z,18.00
2022-10-09T05:14:10.931Z,17.80
2022-10-09T05:17:13.195Z,17.60
2022-10-09T05:19:59.661Z,17.20
2022-10-09T05:22:46.541Z,17.10
2022-10-09T05:25:32.527Z,17.10
2022-10-09T05:28:18.123Z,17.30
2022-10-09T05:31:08.254Z,17.50
2022-10-09T05:33:55.999Z,17.40
2022-10-09T05:36:41.743Z,17.40
2022-10-09T05:39:28.221Z,17.50
2022-10-09T05:42:13.913Z,17.60
2022-10-09T05:44:59.469Z,17.70
2022-10-09T05:47:46.144Z,17.80
2022-10-09T05:50:31.520Z,17.80
2022-10-09T05:53:16.983Z,17.80
2022-10-09T05:56:14.037Z,17.90
2022-10-09T05:59:09.464Z,18.00
2022-10-09T06:01:55.364Z,17.90
2022-10-09T06:04:41.001Z,17.70
2022-10-09T06:07:26.434Z,17.60
2022-10-09T06:10:12.314Z,17.60
2022-10-09T06:12:58.140Z,17.90
2022-10-09T06:15:54.935Z,17.90
2022-10-09T06:18:48.125Z,18.00
2022-10-09T06:21:34.821Z,18.10
2022-10-09T06:24:27.901Z,18.10
2022-10-09T06:27:14.374Z,18.00
2022-10-09T06:29:59.974Z,18.00
2022-10-09T06:32:45.788Z,17.90
2022-10-09T06:35:34.763Z,17.90
2022-10-09T06:38:20.077Z,17.90
2022-10-09T06:41:07.876Z,18.00
2022-10-09T06:43:54.309Z,17.90
2022-10-09T06:46:41.751Z,18.00
2022-10-09T06:49:27.427Z,18.20
2022-10-09T06:52:12.896Z,18.20
2022-10-09T06:54:58.745Z,18.20
2022-10-09T06:57:44.380Z,18.30
2022-10-09T07:00:30.087Z,18.30
2022-10-09T07:03:16.949Z,18.40
2022-10-09T07:06:14.292Z,18.30
2022-10-09T07:09:02.357Z,18.50
2022-10-09T07:11:50.534Z,18.50
2022-10-09T07:14:36.497Z,18.50
2022-10-09T07:17:21.818Z,18.30
2022-10-09T07:20:08.379Z,18.30
2022-10-09T07:22:53.695Z,18.10
2022-10-09T07:25:39.429Z,18.00
2022-10-09T07:28:27.817Z,18.20
2022-10-09T07:31:14.669Z,18.30
2022-10-09T07:34:00.684Z,18.60
2022-10-09T07:36:46.518Z,18.70
2022-10-09T07:39:32.245Z,18.80
2022-10-09T07:42:17.802Z,18.90
2022-10-09T07:45:03.554Z,19.30
2022-10-09T07:47:49.361Z,19.50
2022-10-09T07:50:34.829Z,19.70
2022-10-09T07:53:20.277Z,19.50
2022-10-09T07:56:06.978Z,19.20
2022-10-09T07:58:55.195Z,19.00
2022-10-09T08:01:42.775Z,19.40
2022-10-09T08:04:28.359Z,19.50
2022-10-09T08:07:14.925Z,19.00
2022-10-09T08:10:00.268Z,19.00
2022-10-09T08:12:46.173Z,19.00
2022-10-09T08:15:31.945Z,18.80
2022-10-09T08:18:19.002Z,18.90
2022-10-09T08:21:23.012Z,18.70
2022-10-09T08:24:11.196Z,19.10
2022-10-09T08:26:56.891Z,19.10
2022-10-09T08:29:42.530Z,19.10
2022-10-09T08:32:28.215Z,19.10
2022-10-09T08:35:13.769Z,19.20
2022-10-09T08:37:59.780Z,19.40
2022-10-09T08:40:58.402Z,19.40
2022-10-09T08:43:48.042Z,19.30
2022-10-09T08:46:46.123Z,19.30
2022-10-09T08:49:37.877Z,19.40
2022-10-09T08:52:38.862Z,19.60
2022-10-09T08:55:41.498Z,19.40
2022-10-09T08:58:32.398Z,19.60
2022-10-09T09:01:44.150Z,19.60
2022-10-09T09:04:35.726Z,19.60
2022-10-09T09:07:41.796Z,19.70
2022-10-09T09:10:39.813Z,19.70
2022-10-09T09:13:42.722Z,20.10
2022-10-09T09:17:20.033Z,20.30
2022-10-09T09:20:06.622Z,20.20
2022-10-09T09:22:52.364Z,20.50
2022-10-09T09:25:42.592Z,20.40
2022-10-09T09:28:34.527Z,20.00
2022-10-09T09:31:27.240Z,20.10
2022-10-09T09:34:41.280Z,20.10
2022-10-09T09:37:26.933Z,20.10
2022-10-09T09:40:36.802Z,20.20
2022-10-09T09:43:23.811Z,20.10
2022-10-09T09:46:25.485Z,20.10
2022-10-09T09:49:23.646Z,20.20
2022-10-09T09:52:09.452Z,20.30
2022-10-09T09:54:58.457Z,20.70
2022-10-09T09:57:45.601Z,20.90
2022-10-09T10:00:31.224Z,20.90
2022-10-09T10:03:18.005Z,21.30
2022-10-09T10:06:03.977Z,21.00
2022-10-09T10:08:59.319Z,21.10
2022-10-09T10:12:06.813Z,21.30
2022-10-09T10:14:52.379Z,21.30
2022-10-09T10:17:38.107Z,22.00
2022-10-09T10:20:24.123Z,22.50
2022-10-09T10:23:35.675Z,22.00
2022-10-09T10:26:36.800Z,21.80
2022-10-09T10:29:40.378Z,22.00
2022-10-09T10:32:49.925Z,21.90
2022-10-09T10:35:38.484Z,21.70
2022-10-09T10:38:31.199Z,22.00
2022-10-09T10:41:25.167Z,21.90
2022-10-09T10:44:25.933Z,22.10
2022-10-09T10:47:19.174Z,22.20
2022-10-09T10:50:10.192Z,21.90
2022-10-09T10:53:23.336Z,21.90
2022-10-09T10:56:26.542Z,22.00
2022-10-09T10:59:37.518Z,22.30
2022-10-09T11:03:00.540Z,22.50
2022-10-09T11:05:58.040Z,21.80
2022-10-09T11:09:24.196Z,21.90
2022-10-09T11:12:30.055Z,22.10
2022-10-09T11:15:45.497Z,22.20
2022-10-09T11:18:41.388Z,21.80
2022-10-09T11:21:41.173Z,21.60
2022-10-09T11:24:45.544Z,21.90
2022-10-09T11:27:52.409Z,22.10
2022-10-09T11:30:54.888Z,21.80
2022-10-09T11:33:50.147Z,21.60
2022-10-09T11:36:44.131Z,21.90
2022-10-09T11:39:32.551Z,22.50
2022-10-09T11:42:23.443Z,21.80
2022-10-09T11:45:27.176Z,21.70
2022-10-09T11:48:54.050Z,21.70
2022-10-09T11:51:54.033Z,21.90
2022-10-09T11:54:40.955Z,21.90
2022-10-09T11:57:29.059Z,21.80
2022-10-09T12:00:15.976Z,21.70
2022-10-09T12:03:06.086Z,22.00
2022-10-09T12:05:51.973Z,22.20
2022-10-09T12:08:41.077Z,21.80
2022-10-09T12:11:26.614Z,22.00
2022-10-09T12:14:23.729Z,22.00
2022-10-09T12:17:36.056Z,21.90
2022-10-09T12:20:25.264Z,21.80
2022-10-09T12:23:26.243Z,22.10
2022-10-09T12:26:14.142Z,21.90
2022-10-09T12:29:05.497Z,22.00
2022-10-09T12:32:00.899Z,22.30
2022-10-09T12:34:49.400Z,22.50
2022-10-09T12:37:36.213Z,21.90
2022-10-09T12:40:27.876Z,21.80
2022-10-09T12:43:17.845Z,22.00
2022-10-09T12:46:06.303Z,22.00
2022-10-09T12:48:51.850Z,22.20
2022-10-09T12:51:37.180Z,22.30
2022-10-09T12:54:25.301Z,22.10
2022-10-09T12:57:16.529Z,22.00
2022-10-09T13:00:02.245Z,22.20
2022-10-09T13:02:47.875Z,22.10
2022-10-09T13:05:41.792Z,21.90
2022-10-09T13:08:30.975Z,21.80
2022-10-09T13:11:28.615Z,21.60
2022-10-09T13:14:45.104Z,21.70
2022-10-09T13:17:38.457Z,22.00
2022-10-09T13:20:31.339Z,22.40
2022-10-09T13:23:46.381Z,22.20
2022-10-09T13:26:32.215Z,22.30
2022-10-09T13:29:17.764Z,21.90
2022-10-09T13:32:03.464Z,21.80
2022-10-09T13:34:50.062Z,21.80
2022-10-09T13:37:35.524Z,21.90
2022-10-09T13:40:22.299Z,22.20
2022-10-09T13:43:07.893Z,21.90
2022-10-09T13:45:54.569Z,21.90
2022-10-09T13:48:40.516Z,22.00
2022-10-09T13:51:25.964Z,22.00
2022-10-09T13:54:11.381Z,22.40
2022-10-09T13:56:57.027Z,22.60
2022-10-09T13:59:42.779Z,22.40
2022-10-09T14:02:28.280Z,22.40
2022-10-09T14:05:13.656Z,22.20
2022-10-09T14:07:59.209Z,22.00
2022-10-09T14:10:46.312Z,22.20
2022-10-09T14:13:32.385Z,22.20
2022-10-09T14:16:18.453Z,22.50
2022-10-09T14:19:05.110Z,22.60
2022-10-09T14:21:50.487Z,22.10
2022-10-09T14:24:36.636Z,22.10
2022-10-09T14:27:22.320Z,22.40
2022-10-09T14:30:11.047Z,22.40
2022-10-09T14:32:56.796Z,22.30
2022-10-09T14:35:42.619Z,22.30
2022-10-09T14:38:28.019Z,22.30
2022-10-09T14:41:14.462Z,22.60
2022-10-09T14:44:01.252Z,22.50
2022-10-09T14:46:47.207Z,22.30
2022-10-09T14:49:32.678Z,22.20
2022-10-09T14:52:18.772Z,22.20
2022-10-09T14:55:05.002Z,22.60
2022-10-09T14:57:50.821Z,22.40
2022-10-09T15:00:36.291Z,21.90
2022-10-09T15:03:22.569Z,21.80
2022-10-09T15:06:10.931Z,22.10
2022-10-09T15:09:05.383Z,22.20
2022-10-09T15:11:51.429Z,21.90
2022-10-09T15:14:36.819Z,21.80
2022-10-09T15:17:22.372Z,21.60
2022-10-09T15:20:08.401Z,21.70
2022-10-09T15:22:53.812Z,21.70
2022-10-09T15:25:39.486Z,21.90
2022-10-09T15:28:25.982Z,21.80
2022-10-09T15:31:25.218Z,21.80
2022-10-09T15:34:17.141Z,21.80
2022-10-09T15:37:03.067Z,21.70
2022-10-09T15:39:48.491Z,21.70
2022-10-09T15:42:37.041Z,21.80
2022-10-09T15:45:22.738Z,21.80
2022-10-09T15:48:19.501Z,21.90
2022-10-09T15:51:07.076Z,21.90
2022-10-09T15:53:56.251Z,22.00
2022-10-09T15:56:42.307Z,22.00
2022-10-09T15:59:30.146Z,22.60
2022-10-09T16:02:16.069Z,21.80
2022-10-09T16:05:03.138Z,21.80
2022-10-09T16:07:49.996Z,21.80
2022-10-09T16:10:42.218Z,21.80
2022-10-09T16:13:30.767Z,21.80
2022-10-09T16:16:23.235Z,21.90
2022-10-09T16:19:08.587Z,21.90
2022-10-09T16:21:54.237Z,21.70
2022-10-09T16:24:40.584Z,21.60
2022-10-09T16:27:26.337Z,21.60
2022-10-09T16:30:14.333Z,21.70
2022-10-09T16:33:00.431Z,21.70
2022-10-09T16:35:46.442Z,22.00
2022-10-09T16:38:32.151Z,21.60
2022-10-09T16:41:19.678Z,21.50
2022-10-09T16:44:12.728Z,21.50
2022-10-09T16:46:58.539Z,21.30
2022-10-09T16:49:44.338Z,21.30
2022-10-09T16:52:30.141Z,21.30
2022-10-09T16:55:16.172Z,21.20
2022-10-09T16:58:01.655Z,21.40
2022-10-09T17:00:47.545Z,21.80
2022-10-09T17:03:34.007Z,22.10
2022-10-09T17:06:19.914Z,21.50
2022-10-09T17:09:13.767Z,21.10
2022-10-09T17:12:00.005Z,20.90
2022-10-09T17:14:47.508Z,20.70
2022-10-09T17:17:35.724Z,20.70
2022-10-09T17:20:21.155Z,20.70
2022-10-09T17:23:06.836Z,20.60
2022-10-09T17:25:52.472Z,20.60
2022-10-09T17:28:40.879Z,20.50
2022-10-09T17:31:27.623Z,20.50
2022-10-09T17:34:13.515Z,20.60
2022-10-09T17:36:59.632Z,20.60
2022-10-09T17:39:51.164Z,21.40
2022-10-09T17:42:37.788Z,20.50
2022-10-09T17:45:23.248Z,20.50
2022-10-09T17:48:10.017Z,20.40
2022-10-09T17:50:57.873Z,20.50
2022-10-09T17:53:46.125Z,19.90
2022-10-09T17:56:32.300Z,20.50
2022-10-09T17:59:18.294Z,20.70
2022-10-09T18:02:04.389Z,20.90
2022-10-09T18:04:50.145Z,21.00
2022-10-09T18:07:35.534Z,21.00
2022-10-09T18:10:22.146Z,20.80
2022-10-09T18:13:09.259Z,20.80
2022-10-09T18:15:55.416Z,21.00
2022-10-09T18:18:41.581Z,20.70
2022-10-09T18:21:27.766Z,20.60
2022-10-09T18:24:14.279Z,20.60
2022-10-09T18:26:59.800Z,20.30
2022-10-09T18:29:47.917Z,20.30
2022-10-09T18:32:33.243Z,20.30
2022-10-09T18:35:19.007Z,20.20
2022-10-09T18:38:07.640Z,20.00
2022-10-09T18:40:58.447Z,20.10
2022-10-09T18:43:46.295Z,20.10
2022-10-09T18:46:38.104Z,20.00
2022-10-09T18:49:28.172Z,20.00
2022-10-09T18:52:15.469Z,20.00
2022-10-09T18:55:02.549Z,19.90
2022-10-09T18:57:48.589Z,19.70
2022-10-09T19:00:35.017Z,19.70
2022-10-09T19:03:20.791Z,19.70
2022-10-09T19:06:06.560Z,19.80
2022-10-09T19:08:53.411Z,19.80
2022-10-09T19:11:39.405Z,19.70
2022-10-09T19:14:25.093Z,19.70
2022-10-09T19:17:11.208Z,19.50
2022-10-09T19:19:56.766Z,19.40
2022-10-09T19:22:42.263Z,19.40
2022-10-09T19:25:27.846Z,19.30
2022-10-09T19:28:13.756Z,19.10
2022-10-09T19:31:02.675Z,19.10
2022-10-09T19:33:48.520Z,19.20
2022-10-09T19:36:36.656Z,19.30
2022-10-09T19:39:22.385Z,19.30
2022-10-09T19:42:08.209Z,19.30
2022-10-09T19:44:53.835Z,19.30
2022-10-09T19:47:39.311Z,19.20
2022-10-09T19:50:24.881Z,19.20
2022-10-09T19:53:12.170Z,19.20
2022-10-09T19:55:58.662Z,19.30
2022-10-09T19:58:46.117Z,19.10
2022-10-09T20:01:35.219Z,19.20
2022-10-09T20:04:20.796Z,19.20
2022-10-09T20:07:12.321Z,19.20
2022-10-09T20:09:59.373Z,19.20
2022-10-09T20:12:44.940Z,19.00
2022-10-09T20:15:30.574Z,18.90
2022-10-09T20:18:17.622Z,18.80
2022-10-09T20:21:03.468Z,18.70
2022-10-09T20:23:50.314Z,18.80
2022-10-09T20:26:40.916Z,19.10
2022-10-09T20:29:29.011Z,19.00
2022-10-09T20:32:15.331Z,18.90
2022-10-09T20:35:02.449Z,18.90
2022-10-09T20:37:48.135Z,18.80
2022-10-09T20:40:35.656Z,18.80
2022-10-09T20:43:21.351Z,19.00
2022-10-09T20:46:13.363Z,19.00
2022-10-09T20:48:59.659Z,19.00
2022-10-09T20:51:45.447Z,19.00
2022-10-09T20:54:31.572Z,18.90
2022-10-09T20:57:17.297Z,18.90
2022-10-09T21:00:04.000Z,19.00
2022-10-09T21:02:49.867Z,19.00
2022-10-09T21:05:41.676Z,18.90
2022-10-09T21:08:29.089Z,19.00
2022-10-09T21:11:17.230Z,19.10
2022-10-09T21:14:03.737Z,18.90
2022-10-09T21:16:49.686Z,19.00
2022-10-09T21:19:35.322Z,18.90
2022-10-09T21:22:20.915Z,19.00
2022-10-09T21:25:06.558Z,18.90
2022-10-09T21:27:52.642Z,18.70
2022-10-09T21:30:41.608Z,18.70
2022-10-09T21:33:27.258Z,18.80
2022-10-09T21:36:30.499Z,18.90
2022-10-09T21:39:16.421Z,19.00
2022-10-09T21:42:01.874Z,18.70
2022-10-09T21:44:47.478Z,18.80
2022-10-09T21:47:33.179Z,19.00
2022-10-09T21:50:18.842Z,18.90
2022-10-09T21:53:04.324Z,18.80
2022-10-09T21:55:49.941Z,18.90
2022-10-09T21:58:38.747Z,18.70
2022-10-09T22:01:24.400Z,18.70
2022-10-09T22:04:09.764Z,18.70
2022-10-09T22:06:55.346Z,18.80
2022-10-09T22:09:42.049Z,18.60
2022-10-09T22:12:27.431Z,18.50
2022-10-09T22:15:13.197Z,18.50
2022-10-09T22:17:58.528Z,18.50
2022-10-09T22:20:46.107Z,18.40
2022-10-09T22:23:32.432Z,18.70
2022-10-09T22:26:21.509Z,18.70
2022-10-09T22:29:07.239Z,18.70
2022-10-09T22:31:53.140Z,19.60
2022-10-09T22:34:38.974Z,19.60
2022-10-09T22:37:24.513Z,19.40
2022-10-09T22:40:10.459Z,19.20
2022-10-09T22:42:55.972Z,18.90
2022-10-09T22:45:41.606Z,18.70
2022-10-09T22:48:27.360Z,18.70
2022-10-09T22:51:16.347Z,18.90
2022-10-09T22:54:02.100Z,18.90
2022-10-09T22:56:47.324Z,18.90
2022-10-09T22:59:32.896Z,19.20
2022-10-09T23:02:19.007Z,19.60
2022-10-09T23:05:04.669Z,19.60
2022-10-09T23:07:50.425Z,19.30
2022-10-09T23:10:40.295Z,19.40
2022-10-09T23:13:25.712Z,19.60
2022-10-09T23:16:12.812Z,19.40
2022-10-09T23:19:05.494Z,19.60
2022-10-09T23:21:52.075Z,19.60
2022-10-09T23:24:37.718Z,19.40
2022-10-09T23:27:23.333Z,19.00
2022-10-09T23:30:09.361Z,18.50
2022-10-09T23:32:55.010Z,18.30
2022-10-09T23:35:44.228Z,18.20
2022-10-09T23:38:30.064Z,18.10
2022-10-09T23:41:21.537Z,18.20
2022-10-09T23:44:07.269Z,18.20
2022-10-09T23:46:52.965Z,18.20
2022-10-09T23:49:38.709Z,18.20
2022-10-09T23:52:24.218Z,18.10
2022-10-09T23:55:09.829Z,18.20
2022-10-09T23:57:55.466Z,18.20
